Elbridge, Tennessee
Current Conditions -  °F | °C
As of 11:15 AM on Saturday 25 Oct 2014 (Local Time) from KDYR Reporting Station
Clear Clear  
Wind Chill: 73°   Ceiling: Unl
Heat Index: 73°   Visibility: 10mi
Dew Point: 55°   Wind: 6mph
Humidity: 53%   Direction: 280°W
Pressure: 30.08"   Gusts: NA
Location:  36.2603°N, 89.3219°W
Report Text: KDYR 251615Z 28005KT 10SM CLR 23/13 A3008 RMK AO1
Loading
Personal Weather Stations






























Interactive Weather Map
Tropical Storm Tracking
New forecast layout! Learn more

10-Day Weather Forecast

Advertisements
Track Severe Weather on mobile